createdAt,value
2023-05-22T00:00:24.626Z,94905.00
2023-05-22T00:01:24.623Z,94907.00
2023-05-22T00:02:24.714Z,94907.00
2023-05-22T00:03:24.707Z,94907.00
2023-05-22T00:04:24.592Z,94907.00
2023-05-22T00:05:24.628Z,94909.00
2023-05-22T00:06:24.641Z,94909.00
2023-05-22T00:07:24.601Z,94909.00
2023-05-22T00:08:24.712Z,94911.00
2023-05-22T00:09:24.584Z,94911.00
2023-05-22T00:10:24.590Z,94918.00
2023-05-22T00:11:24.561Z,94909.00
2023-05-22T00:12:24.556Z,94909.00
2023-05-22T00:13:24.579Z,94918.00
2023-05-22T00:14:24.533Z,94907.00
2023-05-22T00:15:24.524Z,94905.00
2023-05-22T00:16:24.535Z,94909.00
2023-05-22T00:17:24.625Z,94905.00
2023-05-22T00:18:24.506Z,94905.00
2023-05-22T00:19:24.524Z,94909.00
2023-05-22T00:20:24.484Z,94905.00
2023-05-22T00:21:24.512Z,94903.00
2023-05-22T00:22:24.581Z,94903.00
2023-05-22T00:23:24.577Z,94905.00
2023-05-22T00:24:24.597Z,94905.00
2023-05-22T00:25:24.609Z,94903.00
2023-05-22T00:26:24.643Z,94907.00
2023-05-22T00:27:24.673Z,94909.00
2023-05-22T00:28:24.697Z,94918.00
2023-05-22T00:29:24.728Z,94907.00
2023-05-22T00:30:24.715Z,94909.00
2023-05-22T00:31:24.776Z,94907.00
2023-05-22T00:32:24.825Z,94907.00
2023-05-22T00:33:24.788Z,94909.00
2023-05-22T00:34:24.848Z,94918.00
2023-05-22T00:35:24.836Z,94922.00
2023-05-22T00:36:24.864Z,94920.00
2023-05-22T00:37:24.906Z,94918.00
2023-05-22T00:38:24.902Z,94918.00
2023-05-22T00:39:24.931Z,94920.00
2023-05-22T00:40:24.949Z,94922.00
2023-05-22T00:41:24.967Z,94918.00
2023-05-22T00:42:25.007Z,94918.00
2023-05-22T00:43:25.028Z,94920.00
2023-05-22T00:44:25.066Z,94920.00
2023-05-22T00:45:25.200Z,94922.00
2023-05-22T00:46:25.134Z,94922.00
2023-05-22T00:47:25.147Z,94922.00
2023-05-22T00:48:25.145Z,94924.00
2023-05-22T00:49:25.153Z,94926.00
2023-05-22T00:50:25.178Z,94924.00
2023-05-22T00:51:25.214Z,94924.00
2023-05-22T00:52:25.225Z,94924.00
2023-05-22T00:53:25.271Z,94924.00
2023-05-22T00:54:25.279Z,94922.00
2023-05-22T00:55:25.303Z,94920.00
2023-05-22T00:56:25.321Z,94920.00
2023-05-22T00:57:25.359Z,94920.00
2023-05-22T00:58:25.384Z,94920.00
2023-05-22T00:59:25.409Z,94924.00
2023-05-22T01:00:25.444Z,94924.00
2023-05-22T01:01:25.513Z,94920.00
2023-05-22T01:02:25.485Z,94922.00
2023-05-22T01:03:25.620Z,94920.00
2023-05-22T01:04:25.535Z,94918.00
2023-05-22T01:05:25.567Z,94911.00
2023-05-22T01:06:25.600Z,94911.00
2023-05-22T01:07:25.630Z,94911.00
2023-05-22T01:08:25.677Z,94918.00
2023-05-22T01:09:25.693Z,94911.00
2023-05-22T01:10:25.724Z,94918.00
2023-05-22T01:11:25.761Z,94918.00
2023-05-22T01:12:25.783Z,94918.00
2023-05-22T01:13:25.820Z,94920.00
2023-05-22T01:14:25.943Z,94920.00
2023-05-22T01:15:25.965Z,94920.00
2023-05-22T01:16:25.970Z,94920.00
2023-05-22T01:17:25.978Z,94920.00
2023-05-22T01:18:26.029Z,94920.00
2023-05-22T01:19:26.057Z,94922.00
2023-05-22T01:20:26.035Z,94922.00
2023-05-22T01:21:26.033Z,94924.00
2023-05-22T01:22:26.062Z,94922.00
2023-05-22T01:23:26.086Z,94922.00
2023-05-22T01:24:26.238Z,94926.00
2023-05-22T01:25:26.136Z,94924.00
2023-05-22T01:26:26.179Z,94926.00
2023-05-22T01:27:26.356Z,94924.00
2023-05-22T01:28:26.245Z,94922.00
2023-05-22T01:29:26.286Z,94920.00
2023-05-22T01:30:26.310Z,94924.00
2023-05-22T01:31:26.451Z,94922.00
2023-05-22T01:32:26.423Z,94920.00
2023-05-22T01:33:26.623Z,94924.00
2023-05-22T01:34:26.425Z,94922.00
2023-05-22T01:35:26.456Z,94926.00
2023-05-22T01:36:26.496Z,94928.00
2023-05-22T01:37:26.540Z,94928.00
2023-05-22T01:38:26.555Z,94928.00
2023-05-22T01:39:26.604Z,94930.00
2023-05-22T01:40:26.626Z,94932.00
2023-05-22T01:41:26.666Z,94930.00
2023-05-22T01:42:26.690Z,94932.00
2023-05-22T01:43:26.728Z,94934.00
2023-05-22T01:44:26.766Z,94934.00
2023-05-22T01:45:26.803Z,94934.00
2023-05-22T01:46:26.895Z,94934.00
2023-05-22T01:47:26.920Z,94936.00
2023-05-22T01:48:26.906Z,94938.00
2023-05-22T01:49:26.965Z,94938.00
2023-05-22T01:50:26.973Z,94938.00
2023-05-22T01:51:26.997Z,94940.00
2023-05-22T01:52:27.034Z,94942.00
2023-05-22T01:53:27.050Z,94940.00
2023-05-22T01:54:27.089Z,94946.00
2023-05-22T01:55:27.133Z,94938.00
2023-05-22T01:56:27.180Z,94938.00
2023-05-22T01:57:27.184Z,94944.00
2023-05-22T01:58:27.213Z,94940.00
2023-05-22T01:59:27.246Z,94942.00
2023-05-22T02:00:27.272Z,94944.00
2023-05-22T02:01:27.397Z,94942.00
2023-05-22T02:02:27.401Z,94940.00
2023-05-22T02:03:27.479Z,94940.00
2023-05-22T02:04:27.401Z,94940.00
2023-05-22T02:05:27.491Z,94944.00
2023-05-22T02:06:27.484Z,94944.00
2023-05-22T02:07:27.521Z,94944.00
2023-05-22T02:08:27.567Z,94944.00
2023-05-22T02:09:27.586Z,94948.00
2023-05-22T02:10:27.640Z,94944.00
2023-05-22T02:11:27.640Z,94944.00
2023-05-22T02:12:27.670Z,94942.00
2023-05-22T02:13:27.700Z,94946.00
2023-05-22T02:14:27.732Z,94946.00
2023-05-22T02:15:27.806Z,94944.00
2023-05-22T02:16:27.805Z,94948.00
2023-05-22T02:17:27.886Z,94946.00
2023-05-22T02:18:27.860Z,94946.00
2023-05-22T02:19:27.959Z,94948.00
2023-05-22T02:20:27.933Z,94948.00
2023-05-22T02:21:27.998Z,94944.00
2023-05-22T02:22:28.013Z,94946.00
2023-05-22T02:23:28.033Z,94946.00
2023-05-22T02:24:28.056Z,94942.00
2023-05-22T02:25:28.095Z,94946.00
2023-05-22T02:26:28.130Z,94944.00
2023-05-22T02:27:28.157Z,94944.00
2023-05-22T02:28:28.204Z,94944.00
2023-05-22T02:29:28.225Z,94944.00
2023-05-22T02:30:28.255Z,94946.00
2023-05-22T02:31:28.324Z,94946.00
2023-05-22T02:32:28.425Z,94948.00
2023-05-22T02:33:28.379Z,94946.00
2023-05-22T02:34:28.410Z,94946.00
2023-05-22T02:35:28.422Z,94948.00
2023-05-22T02:36:28.466Z,94950.00
2023-05-22T02:37:28.529Z,94948.00
2023-05-22T02:38:28.534Z,94950.00
2023-05-22T02:39:28.565Z,94952.00
2023-05-22T02:40:28.584Z,94954.00
2023-05-22T02:41:28.627Z,94952.00
2023-05-22T02:42:28.661Z,94950.00
2023-05-22T02:43:28.689Z,94952.00
2023-05-22T02:44:28.730Z,94952.00
2023-05-22T02:45:28.770Z,94954.00
2023-05-22T02:46:28.808Z,94952.00
2023-05-22T02:47:28.868Z,94952.00
2023-05-22T02:48:28.926Z,94952.00
2023-05-22T02:49:28.916Z,94952.00
2023-05-22T02:50:28.963Z,94950.00
2023-05-22T02:51:28.997Z,94952.00
2023-05-22T02:52:29.031Z,94954.00
2023-05-22T02:53:29.087Z,94956.00
2023-05-22T02:54:29.101Z,94956.00
2023-05-22T02:55:29.147Z,94956.00
2023-05-22T02:56:29.167Z,94957.00
2023-05-22T02:57:29.226Z,94959.00
2023-05-22T02:58:29.233Z,94957.00
2023-05-22T02:59:29.269Z,94957.00
2023-05-22T03:00:29.314Z,94962.00
2023-05-22T03:01:29.384Z,94959.00
2023-05-22T03:02:29.459Z,94959.00
2023-05-22T03:03:29.533Z,94964.00
2023-05-22T03:04:29.473Z,94962.00
2023-05-22T03:05:29.529Z,94964.00
2023-05-22T03:06:29.548Z,94959.00
2023-05-22T03:07:29.738Z,94959.00
2023-05-22T03:08:29.617Z,94957.00
2023-05-22T03:09:29.666Z,94959.00
2023-05-22T03:10:29.685Z,94964.00
2023-05-22T03:11:29.722Z,94964.00
2023-05-22T03:12:29.751Z,94964.00
2023-05-22T03:13:29.820Z,94964.00
2023-05-22T03:14:29.816Z,94965.00
2023-05-22T03:15:29.869Z,94967.00
2023-05-22T03:16:29.980Z,94969.00
2023-05-22T03:17:29.966Z,94967.00
2023-05-22T03:18:29.985Z,94969.00
2023-05-22T03:19:30.064Z,94969.00
2023-05-22T03:20:30.045Z,94971.00
2023-05-22T03:21:30.086Z,94973.00
2023-05-22T03:22:30.142Z,94971.00
2023-05-22T03:23:30.167Z,94973.00
2023-05-22T03:24:30.206Z,94973.00
2023-05-22T03:25:30.273Z,94971.00
2023-05-22T03:26:30.304Z,94973.00
2023-05-22T03:27:30.314Z,94971.00
2023-05-22T03:28:30.472Z,94969.00
2023-05-22T03:29:30.410Z,94971.00
2023-05-22T03:30:30.436Z,94973.00
2023-05-22T03:31:30.467Z,94971.00
2023-05-22T03:32:30.552Z,94971.00
2023-05-22T03:33:30.584Z,94971.00
2023-05-22T03:34:30.594Z,94971.00
2023-05-22T03:35:30.634Z,94973.00
2023-05-22T03:36:32.499Z,94971.00
2023-05-22T03:37:30.676Z,94969.00
2023-05-22T03:38:30.659Z,94971.00
2023-05-22T03:39:30.646Z,94973.00
2023-05-22T03:40:30.631Z,94971.00
2023-05-22T03:41:30.660Z,94973.00
2023-05-22T03:42:30.629Z,94971.00
2023-05-22T03:43:30.618Z,94975.00
2023-05-22T03:44:30.621Z,94971.00
2023-05-22T03:45:30.635Z,94973.00
2023-05-22T03:46:30.610Z,94971.00
2023-05-22T03:47:30.626Z,94973.00
2023-05-22T03:48:30.651Z,94975.00
2023-05-22T03:49:30.582Z,94971.00
2023-05-22T03:50:30.572Z,94973.00
2023-05-22T03:51:30.568Z,94977.00
2023-05-22T03:52:30.570Z,94977.00
2023-05-22T03:53:30.550Z,94977.00
2023-05-22T03:54:30.546Z,94977.00
2023-05-22T03:55:30.537Z,94975.00
2023-05-22T03:56:30.532Z,94977.00
2023-05-22T03:57:30.554Z,94975.00
2023-05-22T03:58:30.515Z,94973.00
2023-05-22T03:59:30.518Z,94975.00
2023-05-22T04:00:30.493Z,94973.00
2023-05-22T04:01:30.514Z,94973.00
2023-05-22T04:02:30.621Z,94971.00
2023-05-22T04:03:30.561Z,94971.00
2023-05-22T04:04:30.493Z,94973.00
2023-05-22T04:05:30.678Z,94971.00
2023-05-22T04:06:30.466Z,94971.00
2023-05-22T04:07:30.445Z,94973.00
2023-05-22T04:08:30.441Z,94973.00
2023-05-22T04:09:30.435Z,94973.00
2023-05-22T04:10:30.415Z,94973.00
2023-05-22T04:11:30.493Z,94973.00
2023-05-22T04:12:30.468Z,94973.00
2023-05-22T04:13:30.528Z,94973.00
2023-05-22T04:14:30.543Z,94977.00
2023-05-22T04:15:30.581Z,94977.00
2023-05-22T04:16:30.663Z,94977.00
2023-05-22T04:17:30.696Z,94977.00
2023-05-22T04:18:30.698Z,94975.00
2023-05-22T04:19:30.774Z,94977.00
2023-05-22T04:20:30.775Z,94981.00
2023-05-22T04:21:30.800Z,94979.00
2023-05-22T04:22:30.841Z,94979.00
2023-05-22T04:23:30.870Z,94981.00
2023-05-22T04:24:30.893Z,94979.00
2023-05-22T04:25:30.934Z,94981.00
2023-05-22T04:26:30.967Z,94981.00
2023-05-22T04:27:31.006Z,94983.00
2023-05-22T04:28:31.048Z,94981.00
2023-05-22T04:29:31.102Z,94985.00
2023-05-22T04:30:31.098Z,94985.00
2023-05-22T04:31:31.165Z,94983.00
2023-05-22T04:32:31.187Z,94985.00
2023-05-22T04:33:31.205Z,94985.00
2023-05-22T04:34:31.243Z,94983.00
2023-05-22T04:35:31.284Z,94983.00
2023-05-22T04:36:31.317Z,94983.00
2023-05-22T04:37:31.340Z,94987.00
2023-05-22T04:38:31.381Z,94991.00
2023-05-22T04:39:31.412Z,94991.00
2023-05-22T04:40:31.462Z,94989.00
2023-05-22T04:41:31.501Z,94993.00
2023-05-22T04:42:31.547Z,94993.00
2023-05-22T04:43:31.576Z,94995.00
2023-05-22T04:44:31.612Z,94995.00
2023-05-22T04:45:31.689Z,94995.00
2023-05-22T04:46:31.757Z,94997.00
2023-05-22T04:47:31.954Z,94997.00
2023-05-22T04:48:31.767Z,94999.00
2023-05-22T04:49:31.807Z,95001.00
2023-05-22T04:50:31.845Z,95003.00
2023-05-22T04:51:31.900Z,95004.00
2023-05-22T04:52:31.931Z,95004.00
2023-05-22T04:53:31.963Z,95004.00
2023-05-22T04:54:32.017Z,95006.00
2023-05-22T04:55:32.076Z,95008.00
2023-05-22T04:56:36.738Z,95006.00
2023-05-22T04:57:32.090Z,95010.00
2023-05-22T04:58:32.069Z,95008.00
2023-05-22T04:59:32.062Z,95006.00
2023-05-22T05:00:32.109Z,95008.00
2023-05-22T05:01:33.309Z,95010.00
2023-05-22T05:02:32.211Z,95008.00
2023-05-22T05:03:32.274Z,95010.00
2023-05-22T05:04:32.269Z,95012.00
2023-05-22T05:05:32.308Z,95012.00
2023-05-22T05:06:32.346Z,95012.00
2023-05-22T05:07:32.381Z,95012.00
2023-05-22T05:08:32.407Z,95008.00
2023-05-22T05:09:32.463Z,95010.00
2023-05-22T05:10:32.484Z,95010.00
2023-05-22T05:11:32.539Z,95012.00
2023-05-22T05:12:32.563Z,95010.00
2023-05-22T05:13:32.596Z,95006.00
2023-05-22T05:14:32.954Z,95008.00
2023-05-22T05:15:32.705Z,95008.00
2023-05-22T05:16:32.737Z,95006.00
2023-05-22T05:17:32.815Z,95004.00
2023-05-22T05:18:32.788Z,95004.00
2023-05-22T05:19:34.721Z,95006.00
2023-05-22T05:20:32.829Z,95003.00
2023-05-22T05:21:32.815Z,95003.00
2023-05-22T05:22:32.831Z,94999.00
2023-05-22T05:23:32.814Z,95003.00
2023-05-22T05:24:32.851Z,95001.00
2023-05-22T05:25:32.789Z,95008.00
2023-05-22T05:26:32.781Z,95006.00
2023-05-22T05:27:32.967Z,95006.00
2023-05-22T05:28:32.767Z,95006.00
2023-05-22T05:29:32.768Z,95006.00
2023-05-22T05:30:32.752Z,95006.00
2023-05-22T05:31:33.028Z,95008.00
2023-05-22T05:32:32.759Z,95008.00
2023-05-22T05:33:32.858Z,95008.00
2023-05-22T05:34:32.741Z,95008.00
2023-05-22T05:35:32.969Z,95004.00
2023-05-22T05:36:32.752Z,95006.00
2023-05-22T05:37:32.745Z,95006.00
2023-05-22T05:38:32.704Z,95004.00
2023-05-22T05:39:32.706Z,95004.00
2023-05-22T05:40:32.701Z,95003.00
2023-05-22T05:41:32.693Z,95001.00
2023-05-22T05:42:32.680Z,94999.00
2023-05-22T05:43:32.711Z,94997.00
2023-05-22T05:44:32.972Z,94995.00
2023-05-22T05:45:32.665Z,94997.00
2023-05-22T05:46:32.677Z,94995.00
2023-05-22T05:47:40.463Z,94997.00
2023-05-22T05:48:32.675Z,94993.00
2023-05-22T05:49:35.642Z,94993.00
2023-05-22T05:50:32.640Z,94993.00
2023-05-22T05:51:32.634Z,94995.00
2023-05-22T05:52:32.984Z,94997.00
2023-05-22T05:53:32.627Z,94993.00
2023-05-22T05:54:32.622Z,94997.00
2023-05-22T05:55:40.104Z,95001.00
2023-05-22T05:56:32.974Z,95003.00
2023-05-22T05:57:35.807Z,95003.00
2023-05-22T05:58:32.580Z,95001.00
2023-05-22T05:59:32.573Z,95003.00
2023-05-22T06:00:40.293Z,95008.00
2023-05-22T06:01:40.441Z,95006.00
2023-05-22T06:02:35.807Z,95004.00
2023-05-22T06:04:04.466Z,95004.00
2023-05-22T06:04:46.851Z,95010.00
2023-05-22T06:06:04.371Z,95010.00
2023-05-22T06:06:32.519Z,95008.00
2023-05-22T06:08:04.348Z,95010.00
2023-05-22T06:08:35.738Z,95008.00
2023-05-22T06:10:37.119Z,95010.00
2023-05-22T06:11:48.350Z,95008.00
2023-05-22T06:12:48.295Z,95008.00
2023-05-22T06:13:32.714Z,95006.00
2023-05-22T06:14:32.701Z,95010.00
2023-05-22T06:15:40.444Z,95008.00
2023-05-22T06:16:33.428Z,95008.00
2023-05-22T06:17:32.887Z,95003.00
2023-05-22T06:18:32.782Z,95004.00
2023-05-22T06:19:32.873Z,95001.00
2023-05-22T06:20:33.880Z,95004.00
2023-05-22T06:21:32.643Z,95003.00
2023-05-22T06:22:32.986Z,95004.00
2023-05-22T06:23:32.628Z,95003.00
2023-05-22T06:24:32.649Z,95003.00
2023-05-22T06:25:32.632Z,95001.00
2023-05-22T06:26:32.662Z,95003.00
2023-05-22T06:27:32.658Z,95001.00
2023-05-22T06:28:32.669Z,95001.00
2023-05-22T06:29:32.709Z,95001.00
2023-05-22T06:30:40.230Z,94999.00
2023-05-22T06:31:32.719Z,94997.00
2023-05-22T06:32:33.229Z,94995.00
2023-05-22T06:33:32.804Z,94995.00
2023-05-22T06:34:32.913Z,94995.00
2023-05-22T06:35:33.695Z,94997.00
2023-05-22T06:36:32.749Z,94995.00
2023-05-22T06:37:33.198Z,94995.00
2023-05-22T06:38:32.672Z,94993.00
2023-05-22T06:39:40.076Z,94991.00
2023-05-22T06:40:32.686Z,94987.00
2023-05-22T06:41:32.658Z,94989.00
2023-05-22T06:42:32.830Z,94987.00
2023-05-22T06:43:32.778Z,94985.00
2023-05-22T06:44:33.683Z,94985.00
2023-05-22T06:45:32.647Z,94985.00
2023-05-22T06:46:32.708Z,94985.00
2023-05-22T06:47:33.084Z,94983.00
2023-05-22T06:48:32.614Z,94983.00
2023-05-22T06:49:32.985Z,94983.00
2023-05-22T06:50:32.605Z,94981.00
2023-05-22T06:51:32.606Z,94981.00
2023-05-22T06:52:33.057Z,94981.00
2023-05-22T06:53:32.572Z,94981.00
2023-05-22T06:54:32.572Z,94977.00
2023-05-22T06:55:32.577Z,94979.00
2023-05-22T06:56:32.562Z,94977.00
2023-05-22T06:57:33.530Z,94977.00
2023-05-22T06:58:32.569Z,94973.00
2023-05-22T06:59:32.786Z,94973.00
2023-05-22T07:00:36.596Z,94975.00
2023-05-22T07:01:32.893Z,94971.00
2023-05-22T07:02:33.125Z,94975.00
2023-05-22T07:03:32.620Z,94973.00
2023-05-22T07:04:32.577Z,94975.00
2023-05-22T07:05:32.602Z,94973.00
2023-05-22T07:06:32.564Z,94977.00
2023-05-22T07:07:32.631Z,94975.00
2023-05-22T07:08:32.648Z,94975.00
2023-05-22T07:09:32.782Z,94971.00
2023-05-22T07:10:32.609Z,94973.00
2023-05-22T07:11:33.031Z,94973.00
2023-05-22T07:12:32.647Z,94973.00
2023-05-22T07:13:33.009Z,94973.00
2023-05-22T07:14:33.517Z,94971.00
2023-05-22T07:15:32.500Z,94971.00
2023-05-22T07:16:32.547Z,94971.00
2023-05-22T07:17:33.029Z,94973.00
2023-05-22T07:18:32.558Z,94971.00
2023-05-22T07:19:32.633Z,94971.00
2023-05-22T07:20:32.605Z,94971.00
2023-05-22T07:21:32.633Z,94971.00
2023-05-22T07:22:32.657Z,94973.00
2023-05-22T07:23:33.010Z,94971.00
2023-05-22T07:24:32.723Z,94973.00
2023-05-22T07:25:32.708Z,94971.00
2023-05-22T07:26:31.748Z,94969.00
2023-05-22T07:27:32.781Z,94969.00
2023-05-22T07:28:33.014Z,94969.00
2023-05-22T07:29:36.024Z,94973.00
2023-05-22T07:30:32.818Z,94967.00
2023-05-22T07:31:36.013Z,94965.00
2023-05-22T07:32:32.851Z,94967.00
2023-05-22T07:33:33.037Z,94967.00
2023-05-22T07:34:32.830Z,94965.00
2023-05-22T07:35:35.998Z,94964.00
2023-05-22T07:36:32.821Z,94964.00
2023-05-22T07:37:35.964Z,94962.00
2023-05-22T07:38:33.020Z,94962.00
2023-05-22T07:39:32.765Z,94962.00
2023-05-22T07:40:48.407Z,94959.00
2023-05-22T07:41:35.952Z,94959.00
2023-05-22T07:42:32.747Z,94956.00
2023-05-22T07:43:33.035Z,94956.00
2023-05-22T07:44:32.749Z,94950.00
2023-05-22T07:45:32.725Z,94950.00
2023-05-22T07:47:48.660Z,94952.00
2023-05-22T07:48:40.093Z,94950.00
2023-05-22T07:49:33.028Z,94950.00
2023-05-22T07:50:32.669Z,94948.00
2023-05-22T07:51:35.863Z,94946.00
2023-05-22T07:52:32.681Z,94946.00
2023-05-22T07:53:32.644Z,94942.00
2023-05-22T07:54:33.369Z,94942.00
2023-05-22T07:56:04.450Z,94940.00
2023-05-22T07:57:32.622Z,94940.00
2023-05-22T07:58:33.044Z,94938.00
2023-05-22T07:59:32.610Z,94936.00
2023-05-22T08:00:32.636Z,94934.00
2023-05-22T08:01:32.586Z,94932.00
2023-05-22T08:02:33.044Z,94930.00
2023-05-22T08:03:33.178Z,94930.00
2023-05-22T08:04:32.652Z,94926.00
2023-05-22T08:05:33.025Z,94926.00
2023-05-22T08:06:32.559Z,94924.00
2023-05-22T08:07:32.580Z,94922.00
2023-05-22T08:08:33.164Z,94924.00
2023-05-22T08:09:32.540Z,94918.00
2023-05-22T08:10:46.455Z,94918.00
2023-05-22T08:11:32.643Z,94907.00
2023-05-22T08:12:36.217Z,94907.00
2023-05-22T08:13:39.942Z,94905.00
2023-05-22T08:14:32.547Z,94909.00
2023-05-22T08:15:32.506Z,94901.00
2023-05-22T08:16:32.568Z,94907.00
2023-05-22T08:17:32.562Z,94905.00
2023-05-22T08:18:32.490Z,94905.00
2023-05-22T08:19:32.641Z,94907.00
2023-05-22T08:20:32.501Z,94905.00
2023-05-22T08:21:32.473Z,94905.00
2023-05-22T08:22:32.461Z,94905.00
2023-05-22T08:23:32.544Z,94903.00
2023-05-22T08:24:32.447Z,94901.00
2023-05-22T08:25:32.465Z,94901.00
2023-05-22T08:26:32.421Z,94899.00
2023-05-22T08:27:32.495Z,94899.00
2023-05-22T08:28:32.521Z,94897.00
2023-05-22T08:29:32.397Z,94897.00
2023-05-22T08:30:32.385Z,94895.00
2023-05-22T08:31:32.465Z,94897.00
2023-05-22T08:32:32.586Z,94897.00
2023-05-22T08:33:32.371Z,94899.00
2023-05-22T08:34:32.536Z,94897.00
2023-05-22T08:35:32.382Z,94893.00
2023-05-22T08:36:32.386Z,94891.00
2023-05-22T08:37:32.450Z,94893.00
2023-05-22T08:38:32.525Z,94889.00
2023-05-22T08:39:33.033Z,94891.00
2023-05-22T08:40:32.612Z,94887.00
2023-05-22T08:41:32.659Z,94889.00
2023-05-22T08:42:40.140Z,94891.00
2023-05-22T08:43:32.743Z,94885.00
2023-05-22T08:44:33.067Z,94885.00
2023-05-22T08:45:32.702Z,94887.00
2023-05-22T08:46:32.710Z,94881.00
2023-05-22T08:47:33.073Z,94881.00
2023-05-22T08:48:32.677Z,94879.00
2023-05-22T08:49:32.671Z,94881.00
2023-05-22T08:50:32.673Z,94879.00
2023-05-22T08:51:32.648Z,94879.00
2023-05-22T08:52:33.049Z,94875.00
2023-05-22T08:53:32.659Z,94873.00
2023-05-22T08:54:32.625Z,94872.00
2023-05-22T08:55:32.613Z,94872.00
2023-05-22T08:56:33.521Z,94868.00
2023-05-22T08:57:40.518Z,94866.00
2023-05-22T08:58:32.774Z,94866.00
2023-05-22T08:59:32.588Z,94866.00
2023-05-22T09:00:32.573Z,94866.00
2023-05-22T09:01:32.649Z,94866.00
2023-05-22T09:02:33.104Z,94862.00
2023-05-22T09:03:33.340Z,94864.00
2023-05-22T09:04:32.602Z,94862.00
2023-05-22T09:05:32.544Z,94862.00
2023-05-22T09:06:32.542Z,94860.00
2023-05-22T09:07:35.733Z,94866.00
2023-05-22T09:08:32.530Z,94864.00
2023-05-22T09:09:32.563Z,94862.00
2023-05-22T09:10:32.508Z,94860.00
2023-05-22T09:11:32.560Z,94858.00
2023-05-22T09:12:32.504Z,94856.00
2023-05-22T09:13:32.495Z,94856.00
2023-05-22T09:14:32.511Z,94854.00
2023-05-22T09:15:32.502Z,94852.00
2023-05-22T09:16:32.537Z,94852.00
2023-05-22T09:17:32.514Z,94852.00
2023-05-22T09:18:32.555Z,94850.00
2023-05-22T09:19:32.568Z,94850.00
2023-05-22T09:20:32.552Z,94850.00
2023-05-22T09:21:32.465Z,94846.00
2023-05-22T09:22:32.559Z,94852.00
2023-05-22T09:23:32.423Z,94846.00
2023-05-22T09:24:32.422Z,94852.00
2023-05-22T09:25:32.700Z,94850.00
2023-05-22T09:26:32.512Z,94848.00
2023-05-22T09:27:33.053Z,94850.00
2023-05-22T09:28:39.966Z,94846.00
2023-05-22T09:29:32.416Z,94850.00
2023-05-22T09:30:32.511Z,94850.00
2023-05-22T09:31:32.437Z,94848.00
2023-05-22T09:32:32.421Z,94848.00
2023-05-22T09:33:33.592Z,94848.00
2023-05-22T09:34:32.374Z,94842.00
2023-05-22T09:35:33.552Z,94842.00
2023-05-22T09:36:33.386Z,94842.00
2023-05-22T09:37:32.349Z,94838.00
2023-05-22T09:38:32.357Z,94838.00
2023-05-22T09:39:32.403Z,94838.00
2023-05-22T09:40:32.555Z,94838.00
2023-05-22T09:41:32.549Z,94840.00
2023-05-22T09:42:36.273Z,94838.00
2023-05-22T09:43:32.744Z,94838.00
2023-05-22T09:44:32.554Z,94840.00
2023-05-22T09:46:32.640Z,94834.00
2023-05-22T09:47:32.655Z,94832.00
2023-05-22T09:48:33.522Z,94832.00
2023-05-22T09:49:32.502Z,94830.00
2023-05-22T09:50:32.506Z,94832.00
2023-05-22T09:51:32.495Z,94830.00
2023-05-22T09:52:32.510Z,94830.00
2023-05-22T09:53:32.569Z,94826.00
2023-05-22T09:54:32.564Z,94828.00
2023-05-22T09:55:32.485Z,94826.00
2023-05-22T09:56:39.162Z,94826.00
2023-05-22T09:57:32.452Z,94820.00
2023-05-22T09:58:32.455Z,94820.00
2023-05-22T09:59:32.438Z,94822.00
2023-05-22T10:00:32.420Z,94822.00
2023-05-22T10:01:32.474Z,94818.00
2023-05-22T10:02:32.533Z,94817.00
2023-05-22T10:03:32.565Z,94818.00
2023-05-22T10:04:32.481Z,94817.00
2023-05-22T10:05:32.428Z,94817.00
2023-05-22T10:06:32.389Z,94815.00
2023-05-22T10:07:32.388Z,94813.00
2023-05-22T10:08:32.573Z,94811.00
2023-05-22T10:09:32.366Z,94809.00
2023-05-22T10:10:32.367Z,94809.00
2023-05-22T10:11:32.370Z,94809.00
2023-05-22T10:12:32.348Z,94811.00
2023-05-22T10:13:32.566Z,94809.00
2023-05-22T10:14:32.660Z,94813.00
2023-05-22T10:15:32.333Z,94805.00
2023-05-22T10:16:32.414Z,94811.00
2023-05-22T10:17:32.376Z,94807.00
2023-05-22T10:18:32.694Z,94805.00
2023-05-22T10:19:32.391Z,94805.00
2023-05-22T10:20:32.296Z,94805.00
2023-05-22T10:21:32.294Z,94805.00
2023-05-22T10:22:32.283Z,94801.00
2023-05-22T10:23:32.578Z,94801.00
2023-05-22T10:24:32.574Z,94795.00
2023-05-22T10:25:32.263Z,94795.00
2023-05-22T10:26:32.254Z,94797.00
2023-05-22T10:27:32.242Z,94795.00
2023-05-22T10:28:32.573Z,94793.00
2023-05-22T10:29:32.235Z,94793.00
2023-05-22T10:30:32.296Z,94795.00
2023-05-22T10:31:32.302Z,94791.00
2023-05-22T10:32:32.628Z,94793.00
2023-05-22T10:33:32.480Z,94791.00
2023-05-22T10:34:32.621Z,94795.00
2023-05-22T10:35:32.544Z,94795.00
2023-05-22T10:36:32.606Z,94791.00
2023-05-22T10:37:32.653Z,94793.00
2023-05-22T10:38:33.082Z,94791.00
2023-05-22T10:39:32.774Z,94789.00
2023-05-22T10:40:33.095Z,94787.00
2023-05-22T10:41:32.895Z,94787.00
2023-05-22T10:42:34.117Z,94787.00
2023-05-22T10:43:33.055Z,94785.00
2023-05-22T10:44:33.066Z,94785.00
2023-05-22T10:45:33.345Z,94781.00
2023-05-22T10:46:33.253Z,94783.00
2023-05-22T10:47:33.375Z,94779.00
2023-05-22T10:48:33.306Z,94779.00
2023-05-22T10:49:33.393Z,94779.00
2023-05-22T10:50:33.553Z,94778.00
2023-05-22T10:51:34.511Z,94776.00
2023-05-22T10:52:33.596Z,94778.00
2023-05-22T10:53:34.086Z,94772.00
2023-05-22T10:54:33.844Z,94774.00
2023-05-22T10:55:34.736Z,94770.00
2023-05-22T10:56:33.793Z,94768.00
2023-05-22T10:57:33.854Z,94768.00
2023-05-22T10:58:34.093Z,94764.00
2023-05-22T10:59:33.983Z,94766.00
2023-05-22T11:00:34.050Z,94760.00
2023-05-22T11:01:34.134Z,94758.00
2023-05-22T11:03:17.170Z,94758.00
2023-05-22T11:03:34.199Z,94758.00
2023-05-22T11:04:34.192Z,94756.00
2023-05-22T11:06:34.284Z,94754.00
2023-05-22T11:07:34.131Z,94752.00
2023-05-22T11:08:34.609Z,94750.00
2023-05-22T11:09:34.116Z,94750.00
2023-05-22T11:10:34.120Z,94748.00
2023-05-22T11:11:34.126Z,94748.00
2023-05-22T11:12:34.098Z,94746.00
2023-05-22T11:13:34.630Z,94744.00
2023-05-22T11:14:34.110Z,94742.00
2023-05-22T11:15:34.078Z,94740.00
2023-05-22T11:16:34.146Z,94740.00
2023-05-22T11:17:34.106Z,94740.00
2023-05-22T11:18:34.064Z,94740.00
2023-05-22T11:19:34.140Z,94738.00
2023-05-22T11:20:34.040Z,94740.00
2023-05-22T11:21:34.043Z,94734.00
2023-05-22T11:22:34.166Z,94734.00
2023-05-22T11:23:34.104Z,94730.00
2023-05-22T11:24:34.626Z,94734.00
2023-05-22T11:25:34.161Z,94732.00
2023-05-22T11:26:34.225Z,94730.00
2023-05-22T11:27:35.314Z,94728.00
2023-05-22T11:28:34.357Z,94728.00
2023-05-22T11:29:34.602Z,94726.00
2023-05-22T11:30:34.469Z,94726.00
2023-05-22T11:31:34.596Z,94726.00
2023-05-22T11:32:34.610Z,94723.00
2023-05-22T11:33:35.112Z,94724.00
2023-05-22T11:34:34.771Z,94723.00
2023-05-22T11:35:35.793Z,94723.00
2023-05-22T11:36:34.888Z,94723.00
2023-05-22T11:37:34.908Z,94721.00
2023-05-22T11:38:35.106Z,94721.00
2023-05-22T11:39:35.068Z,94719.00
2023-05-22T11:40:35.091Z,94717.00
2023-05-22T11:41:35.220Z,94717.00
2023-05-22T11:42:35.238Z,94717.00
2023-05-22T11:43:35.609Z,94715.00
2023-05-22T11:44:35.365Z,94713.00
2023-05-22T11:45:35.407Z,94711.00
2023-05-22T11:46:35.504Z,94711.00
2023-05-22T11:47:35.627Z,94711.00
2023-05-22T11:48:35.628Z,94707.00
2023-05-22T11:49:35.670Z,94709.00